createdAt,value
2023-04-29T00:00:47.352Z,20.13
2023-04-29T00:02:49.132Z,18.13
2023-04-29T00:04:51.946Z,19.58
2023-04-29T00:06:54.307Z,18.45
2023-04-29T00:08:55.927Z,16.42
2023-04-29T00:10:57.517Z,19.35
2023-04-29T00:12:59.209Z,14.60
2023-04-29T00:15:02.992Z,14.80
2023-04-29T00:19:07.134Z,17.45
2023-04-29T00:21:08.783Z,20.70
2023-04-29T00:23:11.212Z,15.07
2023-04-29T00:25:13.114Z,13.95
2023-04-29T00:27:14.828Z,20.35
2023-04-29T00:29:16.400Z,17.58
2023-04-29T00:31:18.123Z,15.48
2023-04-29T00:33:20.099Z,14.43
2023-04-29T00:35:21.988Z,16.40
2023-04-29T00:37:23.616Z,18.27
2023-04-29T00:39:25.776Z,14.98
2023-04-29T00:41:27.416Z,15.35
2023-04-29T00:43:29.043Z,17.27
2023-04-29T00:45:30.668Z,16.52
2023-04-29T00:47:32.293Z,17.23
2023-04-29T00:49:33.961Z,15.88
2023-04-29T00:51:37.475Z,17.98
2023-04-29T00:53:39.506Z,16.35
2023-04-29T00:55:42.101Z,14.52
2023-04-29T00:57:43.797Z,17.80
2023-04-29T00:59:46.095Z,17.00
2023-04-29T01:01:47.804Z,16.05
2023-04-29T01:03:50.935Z,17.15
2023-04-29T01:06:02.896Z,14.38
2023-04-29T01:08:22.689Z,15.18
2023-04-29T01:10:29.507Z,13.75
2023-04-29T01:12:41.655Z,14.77
2023-04-29T01:14:47.196Z,13.02
2023-04-29T01:16:52.808Z,13.02
2023-04-29T01:18:56.379Z,16.73
2023-04-29T01:20:59.102Z,17.92
2023-04-29T01:23:00.695Z,13.63
2023-04-29T01:25:02.278Z,13.48
2023-04-29T01:27:29.776Z,12.18
2023-04-29T01:29:53.955Z,17.92
2023-04-29T01:32:04.943Z,14.27
2023-04-29T01:34:23.570Z,11.43
2023-04-29T01:36:41.028Z,13.95
2023-04-29T01:38:51.202Z,12.15
2023-04-29T01:41:11.653Z,10.88
2023-04-29T01:43:14.675Z,9.90
2023-04-29T01:45:21.435Z,11.80
2023-04-29T01:47:23.504Z,11.32
2023-04-29T01:49:26.118Z,10.25
2023-04-29T01:51:28.374Z,13.38
2023-04-29T01:53:29.983Z,11.13
2023-04-29T01:55:31.582Z,9.85
2023-04-29T01:57:33.757Z,13.63
2023-04-29T01:59:36.612Z,9.52
2023-04-29T02:01:38.264Z,11.57
2023-04-29T02:03:40.229Z,9.60
2023-04-29T02:05:43.109Z,17.20
2023-04-29T02:07:44.815Z,10.57
2023-04-29T02:09:46.433Z,10.45
2023-04-29T02:11:48.053Z,9.70
2023-04-29T02:13:49.671Z,9.43
2023-04-29T02:15:51.337Z,10.35
2023-04-29T02:17:53.025Z,12.90
2023-04-29T02:19:57.182Z,9.45
2023-04-29T02:21:58.803Z,12.13
2023-04-29T02:24:00.403Z,11.55
2023-04-29T02:26:02.112Z,11.55
2023-04-29T02:28:03.760Z,15.68
2023-04-29T02:30:06.123Z,14.35
2023-04-29T02:32:07.797Z,12.60
2023-04-29T02:34:09.652Z,8.95
2023-04-29T02:36:11.218Z,12.88
2023-04-29T02:38:13.072Z,13.35
2023-04-29T02:40:14.665Z,13.82
2023-04-29T02:42:16.218Z,14.35
2023-04-29T02:44:17.924Z,13.13
2023-04-29T02:46:19.681Z,13.50
2023-04-29T02:48:21.415Z,13.35
2023-04-29T02:50:23.306Z,14.68
2023-04-29T02:52:24.899Z,11.40
2023-04-29T02:54:26.492Z,13.98
2023-04-29T02:56:28.204Z,15.90
2023-04-29T02:58:29.819Z,11.25
2023-04-29T03:00:31.446Z,13.02
2023-04-29T03:02:33.160Z,11.15
2023-04-29T03:04:35.050Z,10.48
2023-04-29T03:06:36.642Z,15.10
2023-04-29T03:08:38.237Z,10.35
2023-04-29T03:10:41.479Z,12.80
2023-04-29T03:12:43.626Z,11.52
2023-04-29T03:14:45.244Z,13.07
2023-04-29T03:16:46.884Z,15.40
2023-04-29T03:18:48.897Z,10.80
2023-04-29T03:20:50.439Z,14.27
2023-04-29T03:22:52.127Z,11.13
2023-04-29T03:24:53.795Z,10.35
2023-04-29T03:26:55.680Z,12.52
2023-04-29T03:28:58.593Z,12.93
2023-04-29T03:31:00.553Z,13.43
2023-04-29T03:33:02.351Z,10.10
2023-04-29T03:35:04.343Z,14.55
2023-04-29T03:37:06.255Z,14.13
2023-04-29T03:39:07.882Z,12.18
2023-04-29T03:41:09.478Z,15.32
2023-04-29T03:43:11.229Z,16.02
2023-04-29T03:45:14.458Z,18.92
2023-04-29T03:47:16.164Z,15.23
2023-04-29T03:49:17.964Z,14.00
2023-04-29T03:51:19.577Z,18.02
2023-04-29T03:53:21.954Z,20.15
2023-04-29T03:55:23.755Z,14.77
2023-04-29T03:57:25.325Z,19.95
2023-04-29T03:59:26.918Z,15.50
2023-04-29T04:01:28.501Z,16.80
2023-04-29T04:03:30.272Z,13.52
2023-04-29T04:05:31.910Z,13.55
2023-04-29T04:07:33.543Z,17.10
2023-04-29T04:09:35.133Z,14.45
2023-04-29T04:11:36.716Z,18.30
2023-04-29T04:13:38.671Z,14.60
2023-04-29T04:15:40.742Z,17.25
2023-04-29T04:17:42.414Z,14.00
2023-04-29T04:19:44.010Z,16.40
2023-04-29T04:21:45.643Z,16.27
2023-04-29T04:23:47.210Z,18.63
2023-04-29T04:25:49.344Z,14.45
2023-04-29T04:27:50.978Z,16.85
2023-04-29T04:29:55.580Z,15.90
2023-04-29T04:31:57.373Z,18.98
2023-04-29T04:34:00.006Z,13.18
2023-04-29T04:36:01.865Z,18.30
2023-04-29T04:38:03.443Z,13.55
2023-04-29T04:40:05.537Z,15.27
2023-04-29T04:42:07.325Z,16.42
2023-04-29T04:44:09.181Z,17.92
2023-04-29T04:46:15.170Z,18.90
2023-04-29T04:48:16.815Z,18.38
2023-04-29T04:50:18.379Z,27.30
2023-04-29T04:52:21.509Z,17.73
2023-04-29T04:54:23.112Z,17.50
2023-04-29T04:56:24.690Z,21.25
2023-04-29T04:58:26.876Z,19.73
2023-04-29T05:00:28.471Z,25.73
2023-04-29T05:02:30.153Z,14.80
2023-04-29T05:04:32.122Z,16.13
2023-04-29T05:06:33.913Z,24.48
2023-04-29T05:08:35.517Z,16.58
2023-04-29T05:10:37.474Z,22.10
2023-04-29T05:12:39.053Z,19.83
2023-04-29T05:14:40.855Z,19.58
2023-04-29T05:16:43.769Z,20.67
2023-04-29T05:18:46.632Z,16.60
2023-04-29T05:20:48.238Z,13.85
2023-04-29T05:22:49.827Z,15.55
2023-04-29T05:24:52.924Z,14.88
2023-04-29T05:26:54.693Z,14.18
2023-04-29T05:28:56.260Z,11.88
2023-04-29T05:30:57.839Z,12.48
2023-04-29T05:32:59.593Z,13.63
2023-04-29T05:35:01.697Z,12.30
2023-04-29T05:37:03.340Z,10.32
2023-04-29T05:39:04.964Z,10.45
2023-04-29T05:41:06.594Z,11.93
2023-04-29T05:43:08.180Z,10.85
2023-04-29T05:45:10.504Z,14.20
2023-04-29T05:47:12.088Z,11.82
2023-04-29T05:49:13.776Z,10.73
2023-04-29T05:51:15.950Z,12.48
2023-04-29T05:53:17.550Z,14.27
2023-04-29T05:55:19.381Z,19.90
2023-04-29T05:57:21.246Z,18.05
2023-04-29T05:59:22.971Z,21.45
2023-04-29T06:01:24.633Z,13.38
2023-04-29T06:03:26.516Z,16.65
2023-04-29T06:05:28.779Z,15.35
2023-04-29T06:07:30.744Z,17.17
2023-04-29T06:09:33.369Z,18.85
2023-04-29T06:11:34.987Z,17.05
2023-04-29T06:13:36.566Z,24.83
2023-04-29T06:15:38.409Z,20.13
2023-04-29T06:17:40.480Z,16.52
2023-04-29T06:19:42.104Z,13.93
2023-04-29T06:21:43.679Z,19.45
2023-04-29T06:23:45.381Z,11.45
2023-04-29T06:25:46.964Z,18.10
2023-04-29T06:27:49.393Z,15.80
2023-04-29T06:29:51.328Z,16.77
2023-04-29T06:31:54.357Z,15.88
2023-04-29T06:33:56.633Z,16.63
2023-04-29T06:35:58.230Z,16.52
2023-04-29T06:37:59.776Z,20.20
2023-04-29T06:40:01.344Z,16.27
2023-04-29T06:42:03.762Z,17.08
2023-04-29T06:44:05.434Z,20.58
2023-04-29T06:46:07.315Z,17.20
2023-04-29T06:48:09.086Z,20.83
2023-04-29T06:50:10.945Z,20.88
2023-04-29T06:52:12.764Z,16.88
2023-04-29T06:54:14.375Z,19.33
2023-04-29T06:56:17.179Z,19.90
2023-04-29T06:58:19.601Z,16.10
2023-04-29T07:00:22.882Z,15.00
2023-04-29T07:02:24.532Z,16.77
2023-04-29T07:04:26.211Z,14.43
2023-04-29T07:06:27.886Z,16.60
2023-04-29T07:08:29.523Z,19.08
2023-04-29T07:10:31.184Z,14.05
2023-04-29T07:12:32.805Z,17.70
2023-04-29T07:14:34.374Z,13.98
2023-04-29T07:16:36.237Z,16.02
2023-04-29T07:18:37.863Z,15.82
2023-04-29T07:20:39.473Z,18.92
2023-04-29T07:22:41.061Z,18.20
2023-04-29T07:24:42.723Z,12.68
2023-04-29T07:26:47.701Z,15.52
2023-04-29T07:28:52.211Z,15.27
2023-04-29T07:30:53.839Z,19.05
2023-04-29T07:32:55.440Z,17.25
2023-04-29T07:34:57.564Z,20.70
2023-04-29T07:36:59.153Z,17.08
2023-04-29T07:39:00.801Z,16.20
2023-04-29T07:41:03.246Z,19.05
2023-04-29T07:43:06.892Z,15.27
2023-04-29T07:45:08.873Z,16.55
2023-04-29T07:47:10.526Z,16.02
2023-04-29T07:49:12.650Z,13.13
2023-04-29T07:51:14.908Z,12.05
2023-04-29T07:53:17.396Z,14.15
2023-04-29T07:55:19.111Z,27.65
2023-04-29T07:57:20.742Z,13.82
2023-04-29T07:59:22.269Z,11.77
2023-04-29T08:01:23.871Z,14.77
2023-04-29T08:03:27.334Z,10.57
2023-04-29T08:07:32.700Z,13.90
2023-04-29T08:09:34.414Z,13.07
2023-04-29T08:11:36.031Z,12.55
2023-04-29T08:13:37.661Z,16.00
2023-04-29T08:15:39.273Z,60.08
2023-04-29T08:17:41.117Z,15.55
2023-04-29T08:19:42.780Z,10.02
2023-04-29T08:21:44.716Z,11.65
2023-04-29T08:23:46.395Z,11.05
2023-04-29T08:25:48.054Z,11.00
2023-04-29T08:27:49.655Z,16.13
2023-04-29T08:29:51.717Z,10.75
2023-04-29T08:31:53.496Z,12.73
2023-04-29T08:33:55.235Z,12.90
2023-04-29T08:36:03.873Z,10.65
2023-04-29T08:38:06.713Z,10.38
2023-04-29T08:40:09.110Z,9.75
2023-04-29T08:42:10.913Z,21.42
2023-04-29T08:44:12.791Z,13.85
2023-04-29T08:46:15.097Z,8.63
2023-04-29T08:48:17.599Z,13.65
2023-04-29T08:50:19.618Z,11.38
2023-04-29T08:52:21.183Z,8.40
2023-04-29T08:54:22.749Z,10.05
2023-04-29T08:56:25.679Z,13.13
2023-04-29T08:58:28.957Z,12.07
2023-04-29T09:00:32.449Z,12.63
2023-04-29T09:02:35.386Z,9.38
2023-04-29T09:04:51.282Z,10.60
2023-04-29T09:06:53.881Z,9.35
2023-04-29T09:08:55.649Z,9.10
2023-04-29T09:10:57.698Z,10.55
2023-04-29T09:12:59.248Z,10.55
2023-04-29T09:15:38.183Z,8.63
2023-04-29T09:20:56.029Z,9.52
2023-04-29T09:23:03.667Z,7.97
2023-04-29T09:25:15.015Z,8.82
2023-04-29T09:27:31.522Z,13.68
2023-04-29T09:29:34.620Z,12.60
2023-04-29T09:31:37.941Z,9.77
2023-04-29T09:33:57.154Z,10.60
2023-04-29T09:35:58.859Z,11.57
2023-04-29T09:38:16.917Z,14.48
2023-04-29T09:40:31.591Z,13.88
2023-04-29T09:42:43.320Z,16.55
2023-04-29T09:44:45.397Z,14.50
2023-04-29T09:47:06.985Z,10.80
2023-04-29T09:49:32.809Z,14.18
2023-04-29T09:51:45.172Z,12.98
2023-04-29T09:53:46.733Z,16.13
2023-04-29T09:55:54.178Z,11.25
2023-04-29T09:57:56.309Z,12.57
2023-04-29T09:59:57.921Z,12.00
2023-04-29T10:02:00.108Z,9.13
2023-04-29T10:04:20.916Z,19.92
2023-04-29T10:06:23.621Z,10.50
2023-04-29T10:08:25.555Z,10.95
2023-04-29T10:10:30.317Z,11.27
2023-04-29T10:12:35.206Z,10.82
2023-04-29T10:14:44.893Z,11.27
2023-04-29T10:16:46.791Z,8.95
2023-04-29T10:18:56.496Z,11.05
2023-04-29T10:21:00.307Z,11.40
2023-04-29T10:25:06.941Z,11.98
2023-04-29T10:27:12.376Z,10.10
2023-04-29T10:29:15.503Z,10.95
2023-04-29T10:31:18.065Z,7.13
2023-04-29T10:33:19.984Z,8.50
2023-04-29T10:35:25.806Z,9.23
2023-04-29T10:37:27.801Z,8.75
2023-04-29T10:39:52.449Z,9.82
2023-04-29T10:41:54.491Z,11.95
2023-04-29T10:43:56.334Z,10.93
2023-04-29T10:46:17.468Z,11.93
2023-04-29T10:48:22.035Z,8.45
2023-04-29T10:50:23.669Z,16.45
2023-04-29T10:52:25.364Z,8.13
2023-04-29T10:54:27.970Z,10.85
2023-04-29T10:56:37.895Z,10.40
2023-04-29T10:58:44.077Z,7.32
2023-04-29T11:00:45.727Z,5.45
2023-04-29T11:03:06.892Z,10.02
2023-04-29T11:05:10.244Z,7.60
2023-04-29T11:07:27.168Z,9.52
2023-04-29T11:09:31.084Z,6.30
2023-04-29T11:11:45.606Z,6.55
2023-04-29T11:13:47.996Z,7.88
2023-04-29T11:15:51.688Z,5.13
2023-04-29T11:19:56.216Z,7.95
2023-04-29T11:22:11.985Z,4.95
2023-04-29T11:24:16.188Z,7.05
2023-04-29T11:26:21.579Z,5.75
2023-04-29T11:28:24.519Z,2.92
2023-04-29T11:30:26.308Z,6.13
2023-04-29T11:32:29.783Z,8.48
2023-04-29T11:36:33.619Z,3.70
2023-04-29T11:38:36.601Z,6.90
2023-04-29T11:40:42.434Z,8.70
2023-04-29T11:42:45.752Z,8.05
2023-04-29T11:44:47.489Z,4.97
2023-04-29T11:46:49.795Z,5.72
2023-04-29T11:48:51.467Z,6.13
2023-04-29T11:50:57.899Z,3.95
2023-04-29T11:52:59.552Z,6.00
2023-04-29T11:55:01.173Z,7.20
2023-04-29T11:57:04.887Z,6.22
2023-04-29T12:01:10.071Z,7.43
2023-04-29T12:03:16.060Z,7.63
2023-04-29T12:05:19.505Z,4.65
2023-04-29T12:07:21.858Z,3.17
2023-04-29T12:09:23.619Z,5.10
2023-04-29T12:11:26.853Z,4.38
2023-04-29T12:13:30.188Z,7.28
2023-04-29T12:15:32.680Z,6.22
2023-04-29T12:17:34.332Z,4.32
2023-04-29T12:19:39.263Z,7.07
2023-04-29T12:21:49.130Z,4.20
2023-04-29T12:23:51.851Z,5.50
2023-04-29T12:25:58.301Z,3.78
2023-04-29T12:28:00.287Z,5.07
2023-04-29T12:30:01.869Z,5.13
2023-04-29T12:32:03.802Z,7.05
2023-04-29T12:34:08.310Z,4.85
2023-04-29T12:36:18.588Z,5.18
2023-04-29T12:40:23.841Z,5.65
2023-04-29T12:42:33.018Z,3.58
2023-04-29T12:44:37.757Z,4.35
2023-04-29T12:46:42.710Z,3.63
2023-04-29T12:48:44.507Z,5.25
2023-04-29T12:50:50.309Z,7.75
2023-04-29T12:52:51.878Z,5.65
2023-04-29T12:54:53.699Z,7.10
2023-04-29T12:56:55.642Z,3.85
2023-04-29T12:58:58.028Z,3.08
2023-04-29T13:00:59.684Z,3.03
2023-04-29T13:03:01.808Z,2.50
2023-04-29T13:05:04.873Z,4.47
2023-04-29T13:07:07.253Z,2.58
2023-04-29T13:09:17.939Z,3.60
2023-04-29T13:11:20.780Z,3.58
2023-04-29T13:13:22.457Z,3.53
2023-04-29T13:15:24.122Z,3.80
2023-04-29T13:17:25.813Z,3.05
2023-04-29T13:19:43.348Z,2.85
2023-04-29T13:21:49.145Z,3.47
2023-04-29T13:23:52.057Z,5.30
2023-04-29T13:25:53.660Z,3.40
2023-04-29T13:27:55.436Z,4.40
2023-04-29T13:29:57.055Z,2.88
2023-04-29T13:31:58.828Z,2.65
2023-04-29T13:34:00.614Z,4.43
2023-04-29T13:36:02.435Z,4.80
2023-04-29T13:38:04.442Z,2.70
2023-04-29T13:40:07.586Z,5.78
2023-04-29T13:42:10.429Z,4.05
2023-04-29T13:44:21.578Z,3.65
2023-04-29T13:46:32.129Z,3.03
2023-04-29T13:49:11.289Z,3.38
2023-04-29T13:55:58.759Z,6.35
2023-04-29T13:58:13.359Z,5.00
2023-04-29T13:59:52.647Z,3.08
2023-04-29T14:02:23.198Z,2.35
2023-04-29T14:04:16.212Z,2.92
2023-04-29T14:06:17.840Z,3.30
2023-04-29T14:08:19.447Z,3.55
2023-04-29T14:10:21.165Z,3.33
2023-04-29T14:12:22.829Z,4.30
2023-04-29T14:14:24.437Z,3.38
2023-04-29T14:16:26.485Z,4.72
2023-04-29T14:18:30.144Z,4.03
2023-04-29T14:22:33.300Z,3.85
2023-04-29T14:24:34.926Z,3.75
2023-04-29T14:26:37.129Z,2.90
2023-04-29T14:28:38.737Z,3.67
2023-04-29T14:30:41.569Z,3.47
2023-04-29T14:32:43.315Z,5.97
2023-04-29T14:34:44.981Z,8.50
2023-04-29T14:36:46.881Z,5.28
2023-04-29T14:38:48.760Z,4.70
2023-04-29T14:40:50.621Z,4.97
2023-04-29T14:42:52.190Z,5.30
2023-04-29T14:44:54.558Z,3.35
2023-04-29T14:46:56.950Z,6.05
2023-04-29T14:48:58.680Z,5.93
2023-04-29T14:51:00.431Z,8.88
2023-04-29T14:53:02.176Z,9.65
2023-04-29T14:55:03.962Z,5.68
2023-04-29T14:57:05.540Z,5.93
2023-04-29T14:59:08.831Z,6.53
2023-04-29T15:01:10.526Z,6.78
2023-04-29T15:03:20.171Z,5.95
2023-04-29T15:05:24.133Z,6.32
2023-04-29T15:07:25.964Z,7.03
2023-04-29T15:09:27.654Z,4.32
2023-04-29T15:11:29.247Z,6.90
2023-04-29T15:13:32.109Z,5.95
2023-04-29T15:15:33.906Z,7.90
2023-04-29T15:17:35.557Z,5.53
2023-04-29T15:19:37.388Z,3.83
2023-04-29T15:21:38.986Z,3.58
2023-04-29T15:23:40.650Z,4.57
2023-04-29T15:25:42.312Z,4.32
2023-04-29T15:27:43.957Z,4.35
2023-04-29T15:29:45.555Z,6.25
2023-04-29T15:31:47.193Z,4.80
2023-04-29T15:33:48.912Z,5.80
2023-04-29T15:35:51.364Z,5.13
2023-04-29T15:37:53.029Z,7.07
2023-04-29T15:39:55.957Z,4.10
2023-04-29T15:41:58.941Z,6.60
2023-04-29T15:44:00.729Z,3.90
2023-04-29T15:46:02.809Z,3.55
2023-04-29T15:48:04.925Z,7.07
2023-04-29T15:50:07.600Z,5.47
2023-04-29T15:52:09.737Z,7.22
2023-04-29T15:54:11.354Z,4.53
2023-04-29T15:56:13.363Z,8.82
2023-04-29T15:58:14.950Z,7.18
2023-04-29T16:00:16.515Z,9.52
2023-04-29T16:02:20.392Z,11.95
2023-04-29T16:04:22.185Z,10.25
2023-04-29T16:06:23.895Z,6.22
2023-04-29T16:08:25.653Z,6.28
2023-04-29T16:10:27.238Z,4.25
2023-04-29T16:12:28.966Z,6.75
2023-04-29T16:14:30.657Z,5.60
2023-04-29T16:16:32.391Z,8.48
2023-04-29T16:18:33.954Z,5.25
2023-04-29T16:20:35.560Z,8.23
2023-04-29T16:22:37.169Z,6.45
2023-04-29T16:24:38.787Z,6.18
2023-04-29T16:26:40.856Z,5.88
2023-04-29T16:28:42.475Z,5.15
2023-04-29T16:30:44.300Z,6.13
2023-04-29T16:32:45.947Z,7.10
2023-04-29T16:34:47.623Z,5.25
2023-04-29T16:36:49.605Z,10.88
2023-04-29T16:38:51.627Z,20.30
2023-04-29T16:40:53.244Z,14.18
2023-04-29T16:42:56.904Z,10.68
2023-04-29T16:44:58.453Z,8.40
2023-04-29T16:47:00.261Z,11.00
2023-04-29T16:49:01.877Z,11.50
2023-04-29T16:51:04.275Z,11.93
2023-04-29T16:53:05.852Z,9.73
2023-04-29T16:55:08.660Z,8.52
2023-04-29T16:57:10.698Z,8.93
2023-04-29T16:59:12.647Z,6.90
2023-04-29T17:01:14.432Z,7.05
2023-04-29T17:03:16.110Z,8.95
2023-04-29T17:05:19.475Z,5.13
2023-04-29T17:07:21.198Z,5.55
2023-04-29T17:09:25.970Z,7.00
2023-04-29T17:11:27.558Z,6.60
2023-04-29T17:13:29.784Z,8.45
2023-04-29T17:15:31.658Z,6.95
2023-04-29T17:17:33.289Z,6.85
2023-04-29T17:19:35.067Z,5.43
2023-04-29T17:21:36.751Z,6.07
2023-04-29T17:23:38.821Z,4.75
2023-04-29T17:25:40.650Z,7.25
2023-04-29T17:27:45.934Z,4.90
2023-04-29T17:29:47.594Z,8.23
2023-04-29T17:31:54.945Z,6.35
2023-04-29T17:34:05.518Z,5.55
2023-04-29T17:36:07.282Z,7.68
2023-04-29T17:38:08.965Z,8.20
2023-04-29T17:40:10.994Z,8.30
2023-04-29T17:42:12.539Z,7.65
2023-04-29T17:44:14.232Z,7.55
2023-04-29T17:46:15.998Z,6.53
2023-04-29T17:48:19.334Z,8.77
2023-04-29T17:50:20.964Z,15.82
2023-04-29T17:52:22.592Z,27.95
2023-04-29T17:54:24.229Z,17.73
2023-04-29T17:56:27.249Z,10.77
2023-04-29T17:58:29.240Z,8.15
2023-04-29T18:00:31.160Z,10.52
2023-04-29T18:02:33.177Z,10.30
2023-04-29T18:04:34.798Z,30.58
2023-04-29T18:06:36.386Z,22.35
2023-04-29T18:08:38.057Z,23.25
2023-04-29T18:10:39.643Z,16.20
2023-04-29T18:12:41.463Z,13.75
2023-04-29T18:14:43.092Z,16.50
2023-04-29T18:16:45.021Z,11.63
2023-04-29T18:18:46.735Z,43.13
2023-04-29T18:20:48.386Z,22.67
2023-04-29T18:22:50.784Z,13.30
2023-04-29T18:24:52.419Z,8.23
2023-04-29T18:26:54.190Z,11.23
2023-04-29T18:28:55.858Z,23.30
2023-04-29T18:30:57.629Z,17.98
2023-04-29T18:33:00.115Z,17.73
2023-04-29T18:35:02.135Z,20.33
2023-04-29T18:37:03.691Z,35.00
2023-04-29T18:39:05.300Z,33.53
2023-04-29T18:41:08.641Z,26.55
2023-04-29T18:43:11.949Z,32.88
2023-04-29T18:45:13.643Z,34.65
2023-04-29T18:47:15.515Z,28.88
2023-04-29T18:49:18.073Z,23.20
2023-04-29T18:51:19.831Z,26.45
2023-04-29T18:53:21.561Z,23.77
2023-04-29T18:55:23.234Z,19.40
2023-04-29T18:57:24.855Z,17.52
2023-04-29T18:59:26.914Z,16.50
2023-04-29T19:01:28.614Z,15.43
2023-04-29T19:03:30.270Z,13.32
2023-04-29T19:05:32.307Z,11.90
2023-04-29T19:07:33.868Z,11.77
2023-04-29T19:09:35.480Z,12.30
2023-04-29T19:11:37.162Z,15.15
2023-04-29T19:13:38.814Z,14.48
2023-04-29T19:15:40.982Z,13.52
2023-04-29T19:17:42.634Z,12.93
2023-04-29T19:19:44.285Z,11.82
2023-04-29T19:21:46.038Z,9.98
2023-04-29T19:23:47.677Z,10.68
2023-04-29T19:25:49.396Z,11.57
2023-04-29T19:27:51.207Z,13.32
2023-04-29T19:29:52.992Z,11.73
2023-04-29T19:31:54.698Z,10.93
2023-04-29T19:33:56.403Z,10.80
2023-04-29T19:35:58.000Z,9.38
2023-04-29T19:37:59.572Z,12.35
2023-04-29T19:40:01.201Z,12.40
2023-04-29T19:42:04.123Z,11.05
2023-04-29T19:44:06.534Z,13.37
2023-04-29T19:46:08.236Z,12.68
2023-04-29T19:48:09.948Z,10.20
2023-04-29T19:50:11.552Z,14.57
2023-04-29T19:52:13.090Z,11.93
2023-04-29T19:54:14.655Z,13.00
2023-04-29T19:56:16.446Z,13.68
2023-04-29T19:58:17.984Z,14.23
2023-04-29T20:00:19.636Z,11.68
2023-04-29T20:02:21.317Z,13.07
2023-04-29T20:04:24.946Z,12.32
2023-04-29T20:06:27.255Z,9.65
2023-04-29T20:08:29.136Z,12.32
2023-04-29T20:10:31.022Z,15.27
2023-04-29T20:12:32.765Z,12.40
2023-04-29T20:14:34.390Z,13.27
2023-04-29T20:16:36.019Z,13.65
2023-04-29T20:18:37.796Z,9.98
2023-04-29T20:20:39.400Z,12.70
2023-04-29T20:22:41.008Z,11.90
2023-04-29T20:24:42.908Z,16.90
2023-04-29T20:26:44.519Z,12.90
2023-04-29T20:28:46.102Z,13.80
2023-04-29T20:30:47.754Z,16.60
2023-04-29T20:32:49.383Z,14.98
2023-04-29T20:34:51.085Z,15.45
2023-04-29T20:36:52.694Z,14.45
2023-04-29T20:38:54.424Z,13.52
2023-04-29T20:40:56.093Z,16.48
2023-04-29T20:42:57.700Z,19.55
2023-04-29T20:44:59.898Z,16.95
2023-04-29T20:47:01.567Z,22.85
2023-04-29T20:49:04.584Z,21.70
2023-04-29T20:51:07.078Z,20.40
2023-04-29T20:53:08.806Z,23.05
2023-04-29T20:55:10.413Z,16.10
2023-04-29T20:57:12.034Z,17.00
2023-04-29T20:59:13.683Z,19.02
2023-04-29T21:01:15.362Z,18.20
2023-04-29T21:03:16.947Z,21.05
2023-04-29T21:05:18.589Z,14.38
2023-04-29T21:07:20.235Z,18.27
2023-04-29T21:09:22.139Z,13.13
2023-04-29T21:11:23.840Z,16.75
2023-04-29T21:13:26.109Z,14.68
2023-04-29T21:15:29.342Z,16.83
2023-04-29T21:17:31.210Z,17.30
2023-04-29T21:19:35.782Z,17.00
2023-04-29T21:21:37.393Z,14.38
2023-04-29T21:23:39.269Z,14.77
2023-04-29T21:25:41.075Z,18.25
2023-04-29T21:27:42.659Z,16.08
2023-04-29T21:29:44.242Z,19.20
2023-04-29T21:31:46.029Z,18.52
2023-04-29T21:33:47.653Z,15.48
2023-04-29T21:35:51.672Z,16.08
2023-04-29T21:37:53.381Z,20.35
2023-04-29T21:39:57.500Z,15.65
2023-04-29T21:42:03.219Z,16.30
2023-04-29T21:44:06.377Z,15.55
2023-04-29T21:46:08.089Z,17.02
2023-04-29T21:48:17.519Z,18.02
2023-04-29T21:50:19.272Z,18.20
2023-04-29T21:52:20.965Z,15.88
2023-04-29T21:54:22.747Z,19.48
2023-04-29T21:56:24.687Z,17.48
2023-04-29T21:58:26.342Z,16.45
2023-04-29T22:00:36.350Z,19.23
2023-04-29T22:02:42.690Z,20.63
2023-04-29T22:04:44.431Z,14.73
2023-04-29T22:06:46.377Z,17.88
2023-04-29T22:08:48.070Z,17.90
2023-04-29T22:10:49.868Z,16.60
2023-04-29T22:12:51.947Z,15.95
2023-04-29T22:14:53.566Z,15.85
2023-04-29T22:16:55.159Z,16.58
2023-04-29T22:18:57.619Z,14.50
2023-04-29T22:20:59.353Z,14.35
2023-04-29T22:23:00.941Z,19.00
2023-04-29T22:25:03.460Z,20.13
2023-04-29T22:27:05.056Z,19.55
2023-04-29T22:29:06.686Z,21.65
2023-04-29T22:31:08.262Z,18.02
2023-04-29T22:33:11.176Z,20.98
2023-04-29T22:35:12.818Z,23.05
2023-04-29T22:37:14.625Z,23.50
2023-04-29T22:39:16.233Z,24.88
2023-04-29T22:41:19.500Z,25.30
2023-04-29T22:43:21.198Z,25.70
2023-04-29T22:45:23.230Z,24.33
2023-04-29T22:47:24.904Z,17.83
2023-04-29T22:49:26.850Z,19.65
2023-04-29T22:51:28.425Z,20.10
2023-04-29T22:53:30.055Z,22.52
2023-04-29T22:55:33.263Z,22.83
2023-04-29T22:57:34.898Z,22.20
2023-04-29T22:59:36.510Z,16.88
2023-04-29T23:01:38.119Z,14.57
2023-04-29T23:03:39.820Z,19.08
2023-04-29T23:05:41.575Z,20.00
2023-04-29T23:07:43.153Z,17.35
2023-04-29T23:09:44.764Z,19.38
2023-04-29T23:11:46.482Z,19.55
2023-04-29T23:13:48.796Z,19.13
2023-04-29T23:15:50.758Z,22.08
2023-04-29T23:17:52.450Z,15.43
2023-04-29T23:19:54.336Z,15.90
2023-04-29T23:21:56.299Z,13.63
2023-04-29T23:23:57.963Z,14.85
2023-04-29T23:25:59.546Z,14.30
2023-04-29T23:28:01.090Z,19.20
2023-04-29T23:30:02.810Z,15.63
2023-04-29T23:32:04.458Z,14.05
2023-04-29T23:34:06.072Z,15.35
2023-04-29T23:36:07.797Z,16.13
2023-04-29T23:38:09.500Z,18.00
2023-04-29T23:40:11.321Z,12.77
2023-04-29T23:42:13.226Z,16.30
2023-04-29T23:44:14.811Z,16.48
2023-04-29T23:46:16.700Z,17.23
2023-04-29T23:48:18.446Z,11.25
2023-04-29T23:50:20.059Z,15.63
2023-04-29T23:52:21.637Z,20.42
2023-04-29T23:54:23.297Z,16.80
2023-04-29T23:56:28.912Z,15.90
2023-04-29T23:58:30.598Z,14.82
